Burns Pinion Ridge Reserve, California Weather observations

Data are for 10 minute period ending at time listed.
 Day   Time   Solar   Ave.   Ave.  Ave.  Vector  Max.   Baro.   Total    
  of    of     Rad.   Air    Rel.  Wind   Wind   Wind  Press.  Precip.   
Year   Day            Temp.  Hum.  Speed  Dir.   Gust                    
2014   (PST)  Kw/m2    F      %     mph   deg.    mph    mb.     in.     
-------------------------------------------------------------------------
 274    3:10   0.00   50.6    54    2.2   334     3.1   870.3    0.00 
 274    3:20   0.00   50.1    54    2.7   343     3.9   870.3    0.00 
 274    3:30   0.00   49.4    55    2.6   339     3.6   870.4    0.00 
 274    3:40   0.00   49.1    56    2.3   330     3.4   870.4    0.00 
 274    3:50   0.00   49.4    56    2.6   335     3.9   870.6    0.00 
 274    4:00   0.00   51.0    52    0.5   319     2.2   870.7    0.00 
 274    4:10   0.00   51.6    51    0.9   322     3.4   870.7    0.00 
 274    4:20   0.00   53.4    49    0.8     2     2.6   870.8    0.00 
 274    4:30   0.00   53.9    48    0.8   314     4.2   870.8    0.00 
 274    4:40   0.00   54.7    46    0.4   298     2.0   870.9    0.00 
 274    4:50   0.00   55.5    43    0.1   348     1.7   870.9    0.00 
 274    5:00   0.00   54.6    44    0.2   294     1.6   871.0    0.00 
 274    5:10   0.00   53.6    46    0.4   328     1.9   871.1    0.00 
 274    5:20   0.00   53.3    46    0.6   304     2.4   871.2    0.00 
 274    5:30   0.00   54.3    44    0.1    16     1.2   871.2    0.00 
 274    5:40   0.00   53.6    45    1.2   322     3.2   871.3    0.00 
 274    5:50   0.01   51.9    48    1.6   333     2.3   871.4    0.00 
 274    6:00   0.01   51.1    49    0.6   296     1.8   871.5    0.00 
 274    6:10   0.01   52.2    46    0.8   190     2.6   871.6    0.00 
 274    6:20   0.02   52.5    46    0.6   357     3.1   871.7    0.00 
 274    6:30   0.03   53.0    45    1.9     1     4.4   871.8    0.00 
 274    6:40   0.12   55.5    41    2.4    27     4.2   871.8    0.00 
 274    6:50   0.18   64.6    30    1.0    67     2.6   871.8    0.00 
 274    7:00   0.22   68.6    25    1.4   351     2.9   871.8    0.00 
 274    7:10   0.26   69.7    23    1.3   354     3.3   871.8    0.00 
 274    7:20   0.29   70.4    21    2.0   358     5.0   871.7    0.00 
 274    7:30   0.33   71.0    20    4.1   351     8.8   871.8    0.00 
 274    7:40   0.36   71.1    20    5.1   359     9.1   872.0    0.00 
 274    7:50   0.40   71.4    21    6.7   344    11.8   872.1    0.00 
 274    8:00   0.43   70.0    23    9.9    13    15.6   872.4    0.00 
 274    8:10   0.47   70.3    24    7.3    10    12.8   872.6    0.00 
 274    8:20   0.50   71.8    22    8.8   336    14.0   872.6    0.00 
 274    8:30   0.53   72.0    22   11.0   354    17.2   872.9    0.00 
 274    8:40   0.56   72.2    22   10.8   347    18.0   873.1    0.00 
 274    8:50   0.59   72.5    22   13.1   353    24.3   873.2    0.00 
 274    9:00   0.62   71.7    23   14.0   340    23.5   873.3    0.00 
 274    9:10   0.65   71.6    23   14.2   338    21.0   873.4    0.00 
 274    9:20   0.67   71.5    23   14.3   327    21.3   873.5    0.00 
 274    9:30   0.70   72.4    22   12.8   340    20.9   873.6    0.00 
 274    9:40   0.72   71.8    22   14.8   335    21.5   873.6    0.00 
 274    9:50   0.74   72.1    22   13.5   338    21.3   873.7    0.00 
 274   10:00   0.76   72.4    22   13.5   338    21.0   873.7    0.00 
 274   10:10   0.78   72.5    22   13.5   334    20.1   873.8    0.00 
 274   10:20   0.80   72.9    22   13.6   337    21.2   873.8    0.00 
 274   10:30   0.81   73.4    22   15.3   347    23.6   873.8    0.00 
 274   10:40   0.82   72.9    23   15.3   357    25.0   873.8    0.00 
 274   10:50   0.83   73.2    22   15.4   356    22.4   873.8    0.00 
 274   11:00   0.84   73.3    22   14.9     2    22.4   873.8    0.00 
 274   11:10   0.85   72.8    23   15.0     2    26.6   873.9    0.00 
 274   11:20   0.86   73.4    22   15.1     2    27.0   873.8    0.00 
 274   11:30   0.86   74.0    22   14.8   360    28.6   873.8    0.00 
 274   11:40   0.84   73.5    22   16.1   359    24.6   873.8    0.00 
 274   11:50   0.86   74.0    21   16.1   359    28.4   873.8    0.00 
 274   12:00   0.86   74.2    20   15.4   354    23.1   873.9    0.00 
 274   12:10   0.85   74.2    20   13.8     1    22.1   873.8    0.00 
 274   12:20   0.84   75.7    20   12.3   356    19.7   873.7    0.00 
 274   12:30   0.83   74.7    21   12.1     2    21.4   873.7    0.00 
 274   12:40   0.83   74.6    20    9.9    17    20.2   873.6    0.00 
 274   12:50   0.81   75.4    19   11.8   357    19.6   873.5    0.00 
 274   13:00   0.80   75.7    19   11.1   360    19.6   873.4    0.00 
 274   13:10   0.78   76.6    18    9.3     9    16.2   873.3    0.00 
 274   13:20   0.76   75.9    19   13.8   352    22.1   873.4    0.00 
 274   13:30   0.74   76.3    18    9.6   353    20.0   873.5    0.00 
 274   13:40   0.72   76.9    18    8.2   359    15.4   873.5    0.00 
 274   13:50   0.70   77.4    18    8.1    15    18.2   873.5    0.00 
 274   14:00   0.68   77.6    17    8.0     8    17.5   873.5    0.00 
 274   14:10   0.65   77.0    18    8.2    41    16.7   873.5    0.00 
 274   14:20   0.62   76.0    19    9.5    29    17.3   873.6    0.00 
 274   14:30   0.59   76.7    18   10.1    36    17.7   873.6    0.00 
 274   14:40   0.57   77.1    18    8.4     5    13.9   873.6    0.00 
 274   14:50   0.54   77.5    17   11.3   356    19.0   873.5    0.00 
 274   15:00   0.51   77.0    17   10.3   352    16.1   873.6    0.00 
 274   15:10   0.47   76.9    18    7.7    16    14.5   873.6    0.00 
 274   15:20   0.44   77.2    17    9.6   353    16.9   873.8    0.00 
 274   15:30   0.41   77.2    17   10.4   358    16.2   873.8    0.00 
 274   15:40   0.37   77.1    17   10.6   358    17.5   873.9    0.00 
 274   15:50   0.33   76.8    17    8.3     4    18.4   874.0    0.00 
 274   16:00   0.29   76.8    17    6.3    20    16.9   874.1    0.00 
 274   16:10   0.26   76.8    18    8.9   355    17.2   874.2    0.00 
 274   16:20   0.22   76.6    18   10.3   352    18.1   874.1    0.00 
 274   16:30   0.19   76.8    18    8.6   356    14.5   874.0    0.00 
 274   16:40   0.15   76.4    17    7.8   350    13.6   874.0    0.00 
 274   16:50   0.12   75.5    18    9.4   356    16.4   874.0    0.00 
 274   17:00   0.08   74.6    19    8.1   357    14.5   874.1    0.00 
 274   17:10   0.04   73.8    20    8.0   355    13.0   874.1    0.00 
 274   17:20   0.02   72.4    21    6.6   355    11.6   874.2    0.00 
 274   17:30   0.01   71.3    21    7.8   358    14.2   874.3    0.00 
 274   17:40   0.00   70.8    22    8.3   357    13.4   874.3    0.00 
 274   17:50   0.00   70.4    22    8.1   359    12.9   874.4    0.00 
 274   18:00   0.00   70.2    22    9.4     0    14.5   874.4    0.00 
 274   18:10   0.00   69.7    22    7.3   357    11.1   874.5    0.00 
 274   18:20   0.00   69.5    22    8.5     1    13.2   874.5    0.00 
 274   18:30   0.00   69.3    23    7.5   356    12.6   874.6    0.00 
 274   18:40   0.00   68.8    23    6.7   357    11.0   874.7    0.00 
 274   18:50   0.00   68.4    23    6.9   353    10.8   874.7    0.00 
 274   19:00   0.00   68.3    23    6.7   355    10.4   874.8    0.00 
 274   19:10   0.00   68.1    23    7.3   347    11.0   874.8    0.00 
 274   19:20   0.00   67.6    24    8.2   342    14.6   874.9    0.00 
 274   19:30   0.00   67.6    24    8.7   342    13.2   875.0    0.00 
 274   19:40   0.00   67.5    24    9.0   341    13.4   875.1    0.00 
 274   19:50   0.00   67.5    24    9.4   342    14.0   875.2    0.00 
 274   20:00   0.00   67.4    24    9.9   340    15.1   875.3    0.00 
 274   20:10   0.00   67.2    24    9.2   341    13.2   875.4    0.00 
 274   20:20   0.00   67.2    24    9.5   343    15.3   875.5    0.00 
 274   20:30   0.00   67.2    24   10.8   344    15.4   875.5    0.00 
 274   20:40   0.00   67.0    24    9.3   341    13.6   875.6    0.00 
 274   20:50   0.00   66.5    24    9.7   341    14.4   875.8    0.00 
 274   21:00   0.00   66.6    23    9.8   341    14.8   875.8    0.00 
 274   21:10   0.00   66.2    24    9.2   339    13.2   875.9    0.00 
 274   21:20   0.00   66.0    23    8.7   342    14.7   876.0    0.00 
 274   21:30   0.00   65.7    22    8.9   337    13.8   876.0    0.00 
 274   21:40   0.00   65.8    21    9.5   336    14.8   876.0    0.00 
 274   21:50   0.00   65.4    20    8.5   332    12.6   876.0    0.00 
 274   22:00   0.00   64.3    22    7.7   332    10.2   876.1    0.00 
 274   22:10   0.00   64.0    22    7.0   330    11.7   876.2    0.00 
 274   22:20   0.00   63.8    22    8.4   335    11.9   876.2    0.00 
 274   22:30   0.00   63.8    22    8.6   336    11.7   876.3    0.00 
 274   22:40   0.00   64.3    19   10.2   337    15.9   876.3    0.00 
 274   22:50   0.00   64.5    17   10.0   338    15.5   876.4    0.00 
 274   23:00   0.00   64.7    16    9.6   341    14.5   876.4    0.00 
 274   23:10   0.00   64.7    16    9.6   346    14.2   876.5    0.00 
 274   23:20   0.00   64.7    16    9.7   343    14.0   876.5    0.00 
 274   23:30   0.00   64.1    17    7.8   344    11.7   876.5    0.00 
 274   23:40   0.00   63.5    17    8.3   342    12.9   876.5    0.00 
 274   23:50   0.00   63.3    17    8.3   339    12.4   876.5    0.00 
 275    0:00   0.00   63.0    17    7.3   342    10.7   876.6    0.00 
 275    0:10   0.00   63.2    17    7.2   340    11.0   876.6    0.00 
 275    0:20   0.00   62.5    17    6.8   342    10.8   876.7    0.00 
 275    0:30   0.00   62.5    17    5.5   346    11.0   876.8    0.00 
 275    0:40   0.00   61.6    18    4.9   344     7.5   876.9    0.00 
 275    0:50   0.00   61.5    18    6.9   340    10.7   877.0    0.00 
 275    1:00   0.00   61.6    18    6.5   340    10.2   877.1    0.00 
 275    1:10   0.00   61.1    18    7.1   338    10.4   877.1    0.00 
 275    1:20   0.00   61.2    18    7.3   340    10.8   877.0    0.00 
 275    1:30   0.00   60.9    18    8.1   339    11.2   877.0    0.00 
 275    1:40   0.00   60.5    18    7.7   339    10.9   876.9    0.00 
 275    1:50   0.00   61.0    17    8.5   340    12.0   877.0    0.00 
 275    2:00   0.00   61.0    17    8.3   342    11.8   877.0    0.00 
 275    2:10   0.00   60.8    17    8.4   342    13.2   877.0    0.00 
 275    2:20   0.00   60.9    17    8.5   345    12.7   877.0    0.00 
 275    2:30   0.00   61.1    16    8.4   345    12.2   877.0    0.00 
 275    2:40   0.00   60.7    16    7.8   346    12.3   877.1    0.00 
 275    2:50   0.00   61.0    16    8.2   346    13.1   877.2    0.00 
 275    3:00   0.00   60.2    16    7.0   343    10.7   877.2    0.00 

Return to Burns Pinion Ridge Reserve graphs page.


Western Regional Climate Center,wrcc@dri.edu